sensor_id;sensor_type;location;lat;lon;timestamp;pressure;altitude;pressure_sealevel;temperature;humidity
24422;BME280;12600;53.326;-6.298;2023-05-11T00:00:51;100936.84;;;13.77;78.21
24422;BME280;12600;53.326;-6.298;2023-05-11T00:03:41;100932.00;;;13.74;77.91
24422;BME280;12600;53.326;-6.298;2023-05-11T00:06:30;100931.53;;;13.72;78.40
24422;BME280;12600;53.326;-6.298;2023-05-11T00:09:20;100940.06;;;13.79;78.33
24422;BME280;12600;53.326;-6.298;2023-05-11T00:12:09;100940.06;;;13.79;78.69
24422;BME280;12600;53.326;-6.298;2023-05-11T00:14:59;100941.84;;;13.84;78.83
24422;BME280;12600;53.326;-6.298;2023-05-11T00:17:50;100936.38;;;13.75;78.44
24422;BME280;12600;53.326;-6.298;2023-05-11T00:20:39;100934.56;;;13.79;78.50
24422;BME280;12600;53.326;-6.298;2023-05-11T00:23:28;100936.22;;;13.80;77.67
24422;BME280;12600;53.326;-6.298;2023-05-11T00:26:18;100931.53;;;13.72;77.81
24422;BME280;12600;53.326;-6.298;2023-05-11T00:29:08;100930.22;;;13.69;78.12
24422;BME280;12600;53.326;-6.298;2023-05-11T00:31:57;100943.00;;;13.65;78.61
24422;BME280;12600;53.326;-6.298;2023-05-11T00:34:48;100944.13;;;13.64;78.69
24422;BME280;12600;53.326;-6.298;2023-05-11T00:37:38;100939.44;;;13.65;78.46
24422;BME280;12600;53.326;-6.298;2023-05-11T00:40:27;100939.59;;;13.60;79.04
24422;BME280;12600;53.326;-6.298;2023-05-11T00:43:19;100941.38;;;13.56;78.72
24422;BME280;12600;53.326;-6.298;2023-05-11T00:46:08;100927.16;;;13.45;78.83
24422;BME280;12600;53.326;-6.298;2023-05-11T00:48:58;100917.28;;;13.27;78.80
24422;BME280;12600;53.326;-6.298;2023-05-11T00:51:49;100947.97;;;13.46;78.92
24422;BME280;12600;53.326;-6.298;2023-05-11T00:54:39;100910.75;;;13.14;79.01
24422;BME280;12600;53.326;-6.298;2023-05-11T00:57:29;100939.56;;;13.25;78.75
24422;BME280;12600;53.326;-6.298;2023-05-11T01:00:20;100946.19;;;13.33;79.45
24422;BME280;12600;53.326;-6.298;2023-05-11T01:03:11;100936.81;;;13.25;79.13
24422;BME280;12600;53.326;-6.298;2023-05-11T01:06:10;100914.16;;;13.11;79.33
24422;BME280;12600;53.326;-6.298;2023-05-11T01:09:05;100955.69;;;13.27;79.75
24422;BME280;12600;53.326;-6.298;2023-05-11T01:12:07;100953.53;;;13.15;79.78
24422;BME280;12600;53.326;-6.298;2023-05-11T01:15:09;100955.97;;;13.16;80.21
24422;BME280;12600;53.326;-6.298;2023-05-11T01:18:10;100954.19;;;13.12;79.72
24422;BME280;12600;53.326;-6.298;2023-05-11T01:21:01;100973.25;;;13.17;79.98
24422;BME280;12600;53.326;-6.298;2023-05-11T01:24:22;100970.63;;;13.12;79.67
24422;BME280;12600;53.326;-6.298;2023-05-11T01:27:37;100960.94;;;13.06;80.72
24422;BME280;12600;53.326;-6.298;2023-05-11T01:30:31;100971.28;;;13.09;80.72
24422;BME280;12600;53.326;-6.298;2023-05-11T01:33:31;100965.59;;;12.97;80.79
24422;BME280;12600;53.326;-6.298;2023-05-11T01:36:26;100961.56;;;13.03;80.73
24422;BME280;12600;53.326;-6.298;2023-05-11T01:39:29;100960.75;;;12.94;81.31
24422;BME280;12600;53.326;-6.298;2023-05-11T01:42:27;100967.81;;;12.86;81.66
24422;BME280;12600;53.326;-6.298;2023-05-11T01:45:18;100978.59;;;12.82;82.02
24422;BME280;12600;53.326;-6.298;2023-05-11T01:48:13;100961.66;;;12.80;81.34
24422;BME280;12600;53.326;-6.298;2023-05-11T01:51:04;100972.94;;;12.79;81.71
24422;BME280;12600;53.326;-6.298;2023-05-11T01:53:54;100976.63;;;12.74;82.03
24422;BME280;12600;53.326;-6.298;2023-05-11T01:56:45;100963.22;;;12.73;81.88
24422;BME280;12600;53.326;-6.298;2023-05-11T01:59:37;100964.56;;;12.75;81.64
24422;BME280;12600;53.326;-6.298;2023-05-11T02:02:28;100973.22;;;12.69;82.11
24422;BME280;12600;53.326;-6.298;2023-05-11T02:05:22;100973.47;;;12.58;82.30
24422;BME280;12600;53.326;-6.298;2023-05-11T02:08:13;100983.94;;;12.56;82.11
24422;BME280;12600;53.326;-6.298;2023-05-11T02:11:03;100987.00;;;12.55;82.31
24422;BME280;12600;53.326;-6.298;2023-05-11T02:13:55;100981.22;;;12.56;82.10
24422;BME280;12600;53.326;-6.298;2023-05-11T02:16:47;100985.06;;;12.55;82.55
24422;BME280;12600;53.326;-6.298;2023-05-11T02:19:38;100975.03;;;12.51;82.11
24422;BME280;12600;53.326;-6.298;2023-05-11T02:22:32;100987.97;;;12.59;82.49
24422;BME280;12600;53.326;-6.298;2023-05-11T02:25:22;100998.38;;;12.71;82.16
24422;BME280;12600;53.326;-6.298;2023-05-11T02:28:12;100981.47;;;12.77;82.18
24422;BME280;12600;53.326;-6.298;2023-05-11T02:31:08;100983.75;;;12.75;81.80
24422;BME280;12600;53.326;-6.298;2023-05-11T02:34:05;100969.34;;;12.70;81.70
24422;BME280;12600;53.326;-6.298;2023-05-11T02:37:00;100971.31;;;12.78;81.78
24422;BME280;12600;53.326;-6.298;2023-05-11T02:40:02;100982.47;;;12.81;81.77
24422;BME280;12600;53.326;-6.298;2023-05-11T02:42:58;100990.19;;;12.79;81.62
24422;BME280;12600;53.326;-6.298;2023-05-11T02:45:52;100999.91;;;12.85;81.51
24422;BME280;12600;53.326;-6.298;2023-05-11T02:48:49;101000.06;;;12.89;80.92
24422;BME280;12600;53.326;-6.298;2023-05-11T02:51:44;100995.59;;;12.93;80.83
24422;BME280;12600;53.326;-6.298;2023-05-11T02:54:34;100989.91;;;12.89;80.83
24422;BME280;12600;53.326;-6.298;2023-05-11T02:57:27;100997.00;;;12.91;80.96
24422;BME280;12600;53.326;-6.298;2023-05-11T03:00:21;100986.34;;;12.89;80.67
24422;BME280;12600;53.326;-6.298;2023-05-11T03:03:11;100989.78;;;12.95;80.30
24422;BME280;12600;53.326;-6.298;2023-05-11T03:06:01;101000.75;;;12.95;80.41
24422;BME280;12600;53.326;-6.298;2023-05-11T03:08:50;100997.00;;;12.91;80.85
24422;BME280;12600;53.326;-6.298;2023-05-11T03:11:40;100999.94;;;12.94;81.42
24422;BME280;12600;53.326;-6.298;2023-05-11T03:14:33;100983.28;;;12.91;81.53
24422;BME280;12600;53.326;-6.298;2023-05-11T03:17:23;101000.06;;;12.89;82.00
24422;BME280;12600;53.326;-6.298;2023-05-11T03:20:14;100996.53;;;12.88;82.06
24422;BME280;12600;53.326;-6.298;2023-05-11T03:23:05;100993.41;;;12.81;82.18
24422;BME280;12600;53.326;-6.298;2023-05-11T03:25:56;100986.78;;;12.74;81.92
24422;BME280;12600;53.326;-6.298;2023-05-11T03:28:46;100994.22;;;12.82;82.17
24422;BME280;12600;53.326;-6.298;2023-05-11T03:31:38;100992.16;;;12.87;82.06
24422;BME280;12600;53.326;-6.298;2023-05-11T03:34:27;100994.25;;;12.91;81.66
24422;BME280;12600;53.326;-6.298;2023-05-11T03:37:18;100993.78;;;12.88;82.29
24422;BME280;12600;53.326;-6.298;2023-05-11T03:40:09;100992.66;;;12.89;81.85
24422;BME280;12600;53.326;-6.298;2023-05-11T03:43:13;101003.31;;;12.91;81.80
24422;BME280;12600;53.326;-6.298;2023-05-11T03:46:06;100991.84;;;12.89;81.87
24422;BME280;12600;53.326;-6.298;2023-05-11T03:48:58;100988.94;;;12.85;82.09
24422;BME280;12600;53.326;-6.298;2023-05-11T03:51:50;100989.44;;;12.87;82.15
24422;BME280;12600;53.326;-6.298;2023-05-11T03:54:42;100993.63;;;12.85;82.55
24422;BME280;12600;53.326;-6.298;2023-05-11T03:57:31;101001.56;;;12.95;82.27
24422;BME280;12600;53.326;-6.298;2023-05-11T04:00:22;100987.69;;;12.92;82.41
24422;BME280;12600;53.326;-6.298;2023-05-11T04:03:13;100995.41;;;12.89;82.28
24422;BME280;12600;53.326;-6.298;2023-05-11T04:06:04;100992.19;;;12.96;82.15
24422;BME280;12600;53.326;-6.298;2023-05-11T04:08:53;100991.72;;;12.94;82.36
24422;BME280;12600;53.326;-6.298;2023-05-11T04:11:43;100999.78;;;12.99;82.08
24422;BME280;12600;53.326;-6.298;2023-05-11T04:14:32;101001.59;;;13.04;81.99
24422;BME280;12600;53.326;-6.298;2023-05-11T04:17:21;101009.94;;;12.99;82.50
24422;BME280;12600;53.326;-6.298;2023-05-11T04:20:11;101013.22;;;13.01;82.00
24422;BME280;12600;53.326;-6.298;2023-05-11T04:23:02;101009.47;;;12.97;82.22
24422;BME280;12600;53.326;-6.298;2023-05-11T04:25:55;101003.50;;;12.95;82.23
24422;BME280;12600;53.326;-6.298;2023-05-11T04:28:44;101015.09;;;12.92;82.05
24422;BME280;12600;53.326;-6.298;2023-05-11T04:31:34;101010.22;;;12.88;82.26
24422;BME280;12600;53.326;-6.298;2023-05-11T04:34:24;101023.50;;;12.95;82.08
24422;BME280;12600;53.326;-6.298;2023-05-11T04:37:14;101014.47;;;12.95;81.73
24422;BME280;12600;53.326;-6.298;2023-05-11T04:40:07;101011.25;;;12.93;81.46
24422;BME280;12600;53.326;-6.298;2023-05-11T04:43:00;101017.06;;;13.00;82.00
24422;BME280;12600;53.326;-6.298;2023-05-11T04:45:51;101013.81;;;12.98;81.65
24422;BME280;12600;53.326;-6.298;2023-05-11T04:48:44;101005.09;;;12.96;81.57
24422;BME280;12600;53.326;-6.298;2023-05-11T04:51:34;101016.25;;;12.99;81.70
24422;BME280;12600;53.326;-6.298;2023-05-11T04:54:23;101017.06;;;13.00;81.98
24422;BME280;12600;53.326;-6.298;2023-05-11T04:57:14;101010.75;;;12.99;81.69
24422;BME280;12600;53.326;-6.298;2023-05-11T05:00:07;101015.44;;;12.99;81.75
24422;BME280;12600;53.326;-6.298;2023-05-11T05:02:56;101025.34;;;13.08;81.48
24422;BME280;12600;53.326;-6.298;2023-05-11T05:05:46;101020.47;;;13.05;81.98
24422;BME280;12600;53.326;-6.298;2023-05-11T05:08:35;101023.00;;;12.93;81.75
24422;BME280;12600;53.326;-6.298;2023-05-11T05:11:24;101022.88;;;13.07;81.85
24422;BME280;12600;53.326;-6.298;2023-05-11T05:14:15;101024.81;;;13.06;81.46
24422;BME280;12600;53.326;-6.298;2023-05-11T05:17:04;101030.19;;;13.11;81.47
24422;BME280;12600;53.326;-6.298;2023-05-11T05:19:54;101032.25;;;13.06;81.66
24422;BME280;12600;53.326;-6.298;2023-05-11T05:22:44;101027.41;;;13.03;81.96
24422;BME280;12600;53.326;-6.298;2023-05-11T05:25:34;101025.31;;;13.00;81.78
24422;BME280;12600;53.326;-6.298;2023-05-11T05:28:23;101030.78;;;13.00;82.10
24422;BME280;12600;53.326;-6.298;2023-05-11T05:31:14;101039.19;;;13.03;82.19
24422;BME280;12600;53.326;-6.298;2023-05-11T05:34:04;101021.56;;;12.96;82.24
24422;BME280;12600;53.326;-6.298;2023-05-11T05:36:54;101027.72;;;13.01;82.19
24422;BME280;12600;53.326;-6.298;2023-05-11T05:39:44;101030.97;;;13.03;82.27
24422;BME280;12600;53.326;-6.298;2023-05-11T05:42:35;101029.50;;;13.06;82.07
24422;BME280;12600;53.326;-6.298;2023-05-11T05:45:25;101024.97;;;13.01;82.17
24422;BME280;12600;53.326;-6.298;2023-05-11T05:48:16;101029.84;;;13.13;81.75
24422;BME280;12600;53.326;-6.298;2023-05-11T05:51:06;101020.00;;;13.12;81.79
24422;BME280;12600;53.326;-6.298;2023-05-11T05:53:55;101030.44;;;13.24;81.69
24422;BME280;12600;53.326;-6.298;2023-05-11T05:56:44;101024.63;;;13.25;81.58
24422;BME280;12600;53.326;-6.298;2023-05-11T05:59:34;101028.66;;;13.28;81.74
24422;BME280;12600;53.326;-6.298;2023-05-11T06:02:24;101037.22;;;13.26;81.66
24422;BME280;12600;53.326;-6.298;2023-05-11T06:05:15;101033.50;;;13.31;81.74
24422;BME280;12600;53.326;-6.298;2023-05-11T06:08:04;101017.53;;;13.24;81.47
24422;BME280;12600;53.326;-6.298;2023-05-11T06:10:59;101046.63;;;13.42;81.36
24422;BME280;12600;53.326;-6.298;2023-05-11T06:13:48;101044.03;;;13.46;81.38
24422;BME280;12600;53.326;-6.298;2023-05-11T06:16:38;101044.72;;;13.52;81.03
24422;BME280;12600;53.326;-6.298;2023-05-11T06:19:27;101041.63;;;13.53;81.38
24422;BME280;12600;53.326;-6.298;2023-05-11T06:22:18;101029.38;;;13.51;80.87
24422;BME280;12600;53.326;-6.298;2023-05-11T06:25:08;101039.88;;;13.49;80.70
24422;BME280;12600;53.326;-6.298;2023-05-11T06:27:58;101046.19;;;13.66;80.83
24422;BME280;12600;53.326;-6.298;2023-05-11T06:30:48;101054.44;;;13.75;80.83
24422;BME280;12600;53.326;-6.298;2023-05-11T06:33:37;101050.13;;;13.91;80.80
24422;BME280;12600;53.326;-6.298;2023-05-11T06:36:32;101050.94;;;14.00;80.54
24422;BME280;12600;53.326;-6.298;2023-05-11T06:39:23;101055.13;;;14.07;79.69
24422;BME280;12600;53.326;-6.298;2023-05-11T06:42:13;101053.84;;;14.13;80.06
24422;BME280;12600;53.326;-6.298;2023-05-11T06:45:02;101055.78;;;14.04;80.68
24422;BME280;12600;53.326;-6.298;2023-05-11T06:47:53;101052.38;;;14.07;80.94
24422;BME280;12600;53.326;-6.298;2023-05-11T06:50:43;101067.41;;;14.09;80.25
24422;BME280;12600;53.326;-6.298;2023-05-11T06:53:33;101068.22;;;14.01;80.62
24422;BME280;12600;53.326;-6.298;2023-05-11T06:56:24;101052.06;;;13.91;80.39
24422;BME280;12600;53.326;-6.298;2023-05-11T06:59:14;101062.56;;;13.97;80.50
24422;BME280;12600;53.326;-6.298;2023-05-11T07:02:03;101058.34;;;13.91;81.02
24422;BME280;12600;53.326;-6.298;2023-05-11T07:04:52;101066.44;;;13.96;81.26
24422;BME280;12600;53.326;-6.298;2023-05-11T07:07:42;101063.03;;;13.99;80.87
24422;BME280;12600;53.326;-6.298;2023-05-11T07:10:32;101063.53;;;14.02;80.43
24422;BME280;12600;53.326;-6.298;2023-05-11T07:13:22;101068.53;;;13.99;80.13
24422;BME280;12600;53.326;-6.298;2023-05-11T07:16:12;101063.19;;;13.94;80.04
24422;BME280;12600;53.326;-6.298;2023-05-11T07:19:02;101073.22;;;13.99;80.42
24422;BME280;12600;53.326;-6.298;2023-05-11T07:21:51;101081.28;;;13.95;80.61
24422;BME280;12600;53.326;-6.298;2023-05-11T07:24:41;101082.94;;;13.96;80.44
24422;BME280;12600;53.326;-6.298;2023-05-11T07:27:30;101078.06;;;14.02;80.52
24422;BME280;12600;53.326;-6.298;2023-05-11T07:30:23;101071.63;;;14.07;80.14
24422;BME280;12600;53.326;-6.298;2023-05-11T07:33:13;101074.03;;;14.17;80.19
24422;BME280;12600;53.326;-6.298;2023-05-11T07:36:02;101075.50;;;14.23;80.39
24422;BME280;12600;53.326;-6.298;2023-05-11T07:38:52;101083.41;;;14.33;80.32
24422;BME280;12600;53.326;-6.298;2023-05-11T07:41:41;101080.84;;;14.37;79.86
24422;BME280;12600;53.326;-6.298;2023-05-11T07:44:31;101079.22;;;14.44;79.74
24422;BME280;12600;53.326;-6.298;2023-05-11T07:47:21;101091.53;;;14.47;79.47
24422;BME280;12600;53.326;-6.298;2023-05-11T07:50:11;101094.41;;;14.42;79.50
24422;BME280;12600;53.326;-6.298;2023-05-11T07:53:01;101090.72;;;14.46;79.91
24422;BME280;12600;53.326;-6.298;2023-05-11T07:55:50;101090.22;;;14.62;79.59
24422;BME280;12600;53.326;-6.298;2023-05-11T07:58:39;101088.78;;;14.64;79.50
24422;BME280;12600;53.326;-6.298;2023-05-11T08:01:29;101098.13;;;14.72;79.43
24422;BME280;12600;53.326;-6.298;2023-05-11T08:04:20;101099.94;;;14.68;78.95
24422;BME280;12600;53.326;-6.298;2023-05-11T08:07:09;101094.91;;;14.70;79.18
24422;BME280;12600;53.326;-6.298;2023-05-11T08:09:59;101096.34;;;14.67;79.40
24422;BME280;12600;53.326;-6.298;2023-05-11T08:12:48;101100.06;;;14.80;79.48
24422;BME280;12600;53.326;-6.298;2023-05-11T08:15:37;101103.25;;;14.99;79.34
24422;BME280;12600;53.326;-6.298;2023-05-11T08:18:27;101107.91;;;15.16;79.20
24422;BME280;12600;53.326;-6.298;2023-05-11T08:21:17;101107.09;;;15.24;78.04
24422;BME280;12600;53.326;-6.298;2023-05-11T08:24:07;101108.66;;;15.34;77.94
24422;BME280;12600;53.326;-6.298;2023-05-11T08:26:56;101108.53;;;15.69;78.23
24422;BME280;12600;53.326;-6.298;2023-05-11T08:29:46;101111.00;;;15.91;76.25
24422;BME280;12600;53.326;-6.298;2023-05-11T08:32:35;101106.09;;;16.17;75.40
24422;BME280;12600;53.326;-6.298;2023-05-11T08:35:45;101106.03;;;16.47;72.66
24422;BME280;12600;53.326;-6.298;2023-05-11T08:38:36;101110.34;;;16.77;72.30
24422;BME280;12600;53.326;-6.298;2023-05-11T08:41:25;101114.44;;;17.04;73.15
24422;BME280;12600;53.326;-6.298;2023-05-11T08:44:14;101102.47;;;17.13;70.85
24422;BME280;12600;53.326;-6.298;2023-05-11T08:47:04;101102.16;;;17.26;71.62
24422;BME280;12600;53.326;-6.298;2023-05-11T08:50:10;101112.03;;;17.15;69.23
24422;BME280;12600;53.326;-6.298;2023-05-11T08:52:59;101102.13;;;17.02;68.04
24422;BME280;12600;53.326;-6.298;2023-05-11T08:55:50;101120.16;;;16.99;67.97
24422;BME280;12600;53.326;-6.298;2023-05-11T08:58:40;101106.06;;;16.80;67.59
24422;BME280;12600;53.326;-6.298;2023-05-11T09:01:30;101112.97;;;16.53;67.20
24422;BME280;12600;53.326;-6.298;2023-05-11T09:04:22;101108.72;;;16.56;67.98
24422;BME280;12600;53.326;-6.298;2023-05-11T09:07:15;101099.13;;;17.07;69.24
24422;BME280;12600;53.326;-6.298;2023-05-11T09:10:06;101111.75;;;17.66;69.08
24422;BME280;12600;53.326;-6.298;2023-05-11T09:13:01;101115.56;;;17.85;67.64
24422;BME280;12600;53.326;-6.298;2023-05-11T09:15:50;101100.94;;;17.73;66.41
24422;BME280;12600;53.326;-6.298;2023-05-11T09:18:47;101100.91;;;17.48;65.83
24422;BME280;12600;53.326;-6.298;2023-05-11T09:21:37;101099.63;;;17.46;65.95
24422;BME280;12600;53.326;-6.298;2023-05-11T09:24:27;101105.03;;;17.30;65.96
24422;BME280;12600;53.326;-6.298;2023-05-11T09:27:16;101105.13;;;17.09;65.94
24422;BME280;12600;53.326;-6.298;2023-05-11T09:30:15;101103.88;;;16.73;65.81
24422;BME280;12600;53.326;-6.298;2023-05-11T09:33:08;101114.16;;;16.64;66.63
24422;BME280;12600;53.326;-6.298;2023-05-11T09:35:58;101123.13;;;16.40;67.86
24422;BME280;12600;53.326;-6.298;2023-05-11T09:38:49;101118.56;;;16.23;67.96
24422;BME280;12600;53.326;-6.298;2023-05-11T09:41:44;101118.81;;;16.10;68.87
24422;BME280;12600;53.326;-6.298;2023-05-11T09:44:33;101111.41;;;16.02;68.71
24422;BME280;12600;53.326;-6.298;2023-05-11T09:47:24;101107.63;;;16.27;70.74
24422;BME280;12600;53.326;-6.298;2023-05-11T09:50:17;101104.13;;;16.81;70.87
24422;BME280;12600;53.326;-6.298;2023-05-11T09:53:13;101098.84;;;17.70;71.73
24422;BME280;12600;53.326;-6.298;2023-05-11T09:56:03;101106.13;;;18.39;70.65
24422;BME280;12600;53.326;-6.298;2023-05-11T09:58:54;101108.75;;;18.76;67.29
24422;BME280;12600;53.326;-6.298;2023-05-11T10:01:44;101097.19;;;18.86;65.79
24422;BME280;12600;53.326;-6.298;2023-05-11T10:04:35;101097.72;;;18.63;63.78
24422;BME280;12600;53.326;-6.298;2023-05-11T10:07:29;101088.78;;;18.14;62.50
24422;BME280;12600;53.326;-6.298;2023-05-11T10:10:19;101103.22;;;17.71;62.16
24422;BME280;12600;53.326;-6.298;2023-05-11T10:13:08;101119.66;;;17.43;63.10
24422;BME280;12600;53.326;-6.298;2023-05-11T10:15:58;101114.47;;;17.17;64.75
24422;BME280;12600;53.326;-6.298;2023-05-11T10:18:51;101112.19;;;16.86;65.28
24422;BME280;12600;53.326;-6.298;2023-05-11T10:21:43;101119.69;;;16.97;65.45
24422;BME280;12600;53.326;-6.298;2023-05-11T10:24:33;101121.66;;;16.97;65.85
24422;BME280;12600;53.326;-6.298;2023-05-11T10:27:24;101102.31;;;16.97;66.27
24422;BME280;12600;53.326;-6.298;2023-05-11T10:30:14;101106.34;;;16.99;66.45
24422;BME280;12600;53.326;-6.298;2023-05-11T10:33:05;101086.75;;;16.80;66.94
24422;BME280;12600;53.326;-6.298;2023-05-11T10:35:56;101097.91;;;16.84;67.27
24422;BME280;12600;53.326;-6.298;2023-05-11T10:38:47;101096.66;;;16.81;67.94
24422;BME280;12600;53.326;-6.298;2023-05-11T10:41:46;101093.28;;;17.09;68.82
24422;BME280;12600;53.326;-6.298;2023-05-11T10:44:54;101097.44;;;17.63;69.39
24422;BME280;12600;53.326;-6.298;2023-05-11T10:48:25;101093.50;;;18.54;69.72
24422;BME280;12600;53.326;-6.298;2023-05-11T10:54:51;101104.41;;;20.55;58.67
24422;BME280;12600;53.326;-6.298;2023-05-11T10:57:57;101090.41;;;21.13;59.89
24422;BME280;12600;53.326;-6.298;2023-05-11T11:01:37;101072.50;;;20.68;54.78
24422;BME280;12600;53.326;-6.298;2023-05-11T11:04:42;101105.25;;;20.05;53.08
24422;BME280;12600;53.326;-6.298;2023-05-11T11:07:56;101097.31;;;19.21;52.62
24422;BME280;12600;53.326;-6.298;2023-05-11T11:10:48;101113.41;;;18.59;56.25
24422;BME280;12600;53.326;-6.298;2023-05-11T11:13:56;101129.13;;;17.78;59.70
24422;BME280;12600;53.326;-6.298;2023-05-11T11:17:22;101125.13;;;17.06;64.39
24422;BME280;12600;53.326;-6.298;2023-05-11T11:20:45;101124.38;;;16.43;67.87
24422;BME280;12600;53.326;-6.298;2023-05-11T11:23:47;101127.94;;;16.02;69.53
24422;BME280;12600;53.326;-6.298;2023-05-11T11:26:48;101121.59;;;15.80;70.74
24422;BME280;12600;53.326;-6.298;2023-05-11T11:29:39;101125.53;;;15.71;70.50
24422;BME280;12600;53.326;-6.298;2023-05-11T11:32:28;101108.59;;;15.51;71.00
24422;BME280;12600;53.326;-6.298;2023-05-11T11:35:51;101105.81;;;15.51;75.52
24422;BME280;12600;53.326;-6.298;2023-05-11T11:38:56;101103.53;;;15.62;73.09
24422;BME280;12600;53.326;-6.298;2023-05-11T11:41:59;101117.75;;;15.73;72.81
24422;BME280;12600;53.326;-6.298;2023-05-11T11:44:49;101124.00;;;15.82;72.73
24422;BME280;12600;53.326;-6.298;2023-05-11T11:47:39;101133.13;;;15.74;72.33
24422;BME280;12600;53.326;-6.298;2023-05-11T11:50:29;101124.63;;;15.49;72.13
24422;BME280;12600;53.326;-6.298;2023-05-11T11:54:04;101139.00;;;15.55;73.57
24422;BME280;12600;53.326;-6.298;2023-05-11T11:56:59;101133.50;;;15.55;73.19
24422;BME280;12600;53.326;-6.298;2023-05-11T11:59:48;101132.91;;;15.49;73.52
24422;BME280;12600;53.326;-6.298;2023-05-11T12:02:40;101152.13;;;15.58;74.53
24422;BME280;12600;53.326;-6.298;2023-05-11T12:05:32;101146.00;;;15.61;74.13
24422;BME280;12600;53.326;-6.298;2023-05-11T12:08:23;101140.94;;;15.63;75.08
24422;BME280;12600;53.326;-6.298;2023-05-11T12:11:16;101140.78;;;15.59;74.52
24422;BME280;12600;53.326;-6.298;2023-05-11T12:14:08;101154.22;;;15.70;74.21
24422;BME280;12600;53.326;-6.298;2023-05-11T12:17:06;101144.34;;;15.69;73.90
24422;BME280;12600;53.326;-6.298;2023-05-11T12:20:13;101154.84;;;15.75;74.39
24422;BME280;12600;53.326;-6.298;2023-05-11T12:23:03;101152.88;;;15.76;74.16
24422;BME280;12600;53.326;-6.298;2023-05-11T12:26:00;101153.69;;;15.76;74.75
24422;BME280;12600;53.326;-6.298;2023-05-11T12:28:51;101149.00;;;15.77;75.01
24422;BME280;12600;53.326;-6.298;2023-05-11T12:31:43;101143.09;;;15.87;75.40
24422;BME280;12600;53.326;-6.298;2023-05-11T12:34:32;101149.34;;;16.26;76.14
24422;BME280;12600;53.326;-6.298;2023-05-11T12:37:22;101155.72;;;16.59;75.27
24422;BME280;12600;53.326;-6.298;2023-05-11T12:40:13;101158.72;;;16.75;74.16
24422;BME280;12600;53.326;-6.298;2023-05-11T12:43:02;101163.03;;;16.85;73.51
24422;BME280;12600;53.326;-6.298;2023-05-11T12:45:52;101160.13;;;16.81;73.02
24422;BME280;12600;53.326;-6.298;2023-05-11T12:48:43;101166.19;;;16.74;72.57
24422;BME280;12600;53.326;-6.298;2023-05-11T12:51:46;101153.78;;;16.60;72.94
24422;BME280;12600;53.326;-6.298;2023-05-11T12:54:37;101167.25;;;16.61;72.44
24422;BME280;12600;53.326;-6.298;2023-05-11T12:57:28;101174.13;;;16.55;72.94
24422;BME280;12600;53.326;-6.298;2023-05-11T13:00:18;101182.66;;;16.41;73.11
24422;BME280;12600;53.326;-6.298;2023-05-11T13:03:09;101178.41;;;16.23;72.53
24422;BME280;12600;53.326;-6.298;2023-05-11T13:06:08;101169.03;;;15.86;70.12
24422;BME280;12600;53.326;-6.298;2023-05-11T13:08:58;101178.19;;;15.69;70.69
24422;BME280;12600;53.326;-6.298;2023-05-11T13:11:47;101174.38;;;15.44;70.96
24422;BME280;12600;53.326;-6.298;2023-05-11T13:14:37;101182.16;;;15.42;71.90
24422;BME280;12600;53.326;-6.298;2023-05-11T13:17:30;101179.56;;;15.37;72.34
24422;BME280;12600;53.326;-6.298;2023-05-11T13:20:21;101183.47;;;15.36;72.30
24422;BME280;12600;53.326;-6.298;2023-05-11T13:23:14;101178.47;;;15.29;72.32
24422;BME280;12600;53.326;-6.298;2023-05-11T13:26:03;101175.38;;;15.31;72.87
24422;BME280;12600;53.326;-6.298;2023-05-11T13:28:53;101172.00;;;15.25;72.68
24422;BME280;12600;53.326;-6.298;2023-05-11T13:31:57;101183.00;;;15.34;73.15
24422;BME280;12600;53.326;-6.298;2023-05-11T13:34:46;101177.78;;;15.50;74.06
24422;BME280;12600;53.326;-6.298;2023-05-11T13:37:36;101172.81;;;15.81;75.39
24422;BME280;12600;53.326;-6.298;2023-05-11T13:40:26;101174.25;;;16.38;75.98
24422;BME280;12600;53.326;-6.298;2023-05-11T13:43:16;101174.25;;;17.00;75.94
24422;BME280;12600;53.326;-6.298;2023-05-11T13:46:06;101176.66;;;17.59;75.72
24422;BME280;12600;53.326;-6.298;2023-05-11T13:48:55;101176.25;;;17.82;74.29
24422;BME280;12600;53.326;-6.298;2023-05-11T13:51:47;101184.78;;;17.89;73.13
24422;BME280;12600;53.326;-6.298;2023-05-11T13:54:36;101179.56;;;17.87;73.24
24422;BME280;12600;53.326;-6.298;2023-05-11T13:57:27;101190.19;;;17.85;73.24
24422;BME280;12600;53.326;-6.298;2023-05-11T14:00:17;101184.19;;;17.83;73.32
24422;BME280;12600;53.326;-6.298;2023-05-11T14:03:07;101186.97;;;17.83;73.63
24422;BME280;12600;53.326;-6.298;2023-05-11T14:05:57;101190.66;;;17.75;72.55
24422;BME280;12600;53.326;-6.298;2023-05-11T14:08:46;101198.00;;;17.71;73.52
24422;BME280;12600;53.326;-6.298;2023-05-11T14:11:36;101203.84;;;17.70;73.54
24422;BME280;12600;53.326;-6.298;2023-05-11T14:14:27;101202.19;;;17.56;73.63
24422;BME280;12600;53.326;-6.298;2023-05-11T14:17:17;101207.66;;;17.65;73.70
24422;BME280;12600;53.326;-6.298;2023-05-11T14:20:08;101211.28;;;17.90;74.68
24422;BME280;12600;53.326;-6.298;2023-05-11T14:22:57;101204.22;;;18.29;75.12
24422;BME280;12600;53.326;-6.298;2023-05-11T14:25:47;101211.00;;;18.96;76.81
24422;BME280;12600;53.326;-6.298;2023-05-11T14:28:37;101215.00;;;19.71;77.11
24422;BME280;12600;53.326;-6.298;2023-05-11T14:31:28;101216.59;;;20.03;74.08
24422;BME280;12600;53.326;-6.298;2023-05-11T14:34:19;101221.03;;;20.24;72.96
24422;BME280;12600;53.326;-6.298;2023-05-11T14:37:08;101227.63;;;20.51;71.68
24422;BME280;12600;53.326;-6.298;2023-05-11T14:39:57;101226.72;;;20.62;69.80
24422;BME280;12600;53.326;-6.298;2023-05-11T14:42:47;101233.13;;;20.47;68.72
24422;BME280;12600;53.326;-6.298;2023-05-11T14:45:37;101230.53;;;20.23;68.78
24422;BME280;12600;53.326;-6.298;2023-05-11T14:48:30;101235.31;;;20.06;65.77
24422;BME280;12600;53.326;-6.298;2023-05-11T14:51:19;101235.81;;;20.12;68.23
24422;BME280;12600;53.326;-6.298;2023-05-11T14:54:08;101238.03;;;20.38;67.78